KFMH/FMH METAR and TAF weather

Enter ICAO airport designator
Station Type Date Time Source
KFMH METAR 2020/08/10 18:45 UTC NOAA

KFMH 101845Z 24015KT 10SM CLR 31/21 A2999


Station Type Date Time Source
KFMH Decoded METAR 2020/08/10 18:45 UTC NOAA

Otis Air National Guard Base, MA, United States (KFMH) 41-39N 070-31W
Aug 10, 2020 - 02:45 PM EDT / 2020.08.10 1845 UTC
Wind: from the WSW (240 degrees) at 17 MPH (15 KT):0
Visibility: 10 mile(s):0
Sky conditions: clear
Temperature: 87 F (31 C)
Dew Point: 69 F (21 C)
Relative Humidity: 55%
Pressure (altimeter): 29.99 in. Hg (1015 hPa)
ob: KFMH 101845Z 24015KT 10SM CLR 31/21 A2999
cycle: 19

Station Type Date Time Source
KFMH TAF 2020/08/10 18:42 UTC NOAA

TAF KFMH 101740Z 1018/1118 23012G19KT P6SM SKC
FM102300 23008KT P6SM SKC
FM110600 23005KT 5SM BR SCT004
FM111200 23010G17KT P6SM SKC

Example: see airport list